Time;durP1;ratioP1;P1;durP2;ratioP2;P2;SDS_P1;SDS_P2;PMS_P1;PMS_P2;Temp;Humidity;BMP_temperature;BMP_pressure;BME280_temperature;BME280_humidity;BME280_pressure;Samples;Min_cycle;Max_cycle;Signal;HPM_P1;HPM_P2
2021/08/08 00:00:42;;;;;;;3.38;1.08;;;17.50;88.30;;;;;;5037926;28;20424;-81
2021/08/08 00:03:08;;;;;;;8.93;1.33;;;17.50;88.40;;;;;;5072812;28;20024;-81
2021/08/08 00:05:34;;;;;;;8.05;1.23;;;17.50;88.20;;;;;;5021816;28;20031;-81
2021/08/08 00:07:59;;;;;;;2.47;1.30;;;17.50;88.10;;;;;;5054585;28;20059;-81
2021/08/08 00:10:25;;;;;;;3.03;1.38;;;17.50;88.10;;;;;;5054439;28;20394;-82
2021/08/08 00:12:51;;;;;;;4.43;1.60;;;17.50;88.10;;;;;;5054726;28;20031;-81
2021/08/08 00:15:16;;;;;;;4.75;1.50;;;17.50;88.10;;;;;;5072806;28;20032;-81
2021/08/08 00:17:42;;;;;;;8.98;1.23;;;17.50;88.20;;;;;;5050468;28;20037;-81
2021/08/08 00:20:09;;;;;;;3.03;1.30;;;17.50;88.10;;;;;;5054546;28;20035;-81
2021/08/08 00:22:35;;;;;;;4.88;1.27;;;17.50;88.00;;;;;;5038016;28;20025;-81
2021/08/08 00:25:03;;;;;;;8.10;1.80;;;17.50;87.90;;;;;;5054487;28;20059;-81
2021/08/08 00:27:28;;;;;;;4.90;1.70;;;17.50;87.90;;;;;;5072594;28;20025;-81
2021/08/08 00:29:54;;;;;;;6.38;1.85;;;17.50;87.70;;;;;;5054656;28;20110;-81
2021/08/08 00:32:20;;;;;;;6.93;1.70;;;17.50;87.90;;;;;;5037995;28;20477;-81
2021/08/08 00:34:45;;;;;;;5.60;1.92;;;17.50;87.80;;;;;;5039997;28;20420;-81
2021/08/08 00:37:11;;;;;;;9.27;2.08;;;17.60;87.80;;;;;;5058219;28;20078;-81
2021/08/08 00:39:37;;;;;;;5.88;1.75;;;17.50;87.40;;;;;;5057582;28;20036;-81
2021/08/08 00:42:03;;;;;;;6.55;1.88;;;17.50;87.70;;;;;;5041363;28;20131;-81
2021/08/08 00:44:28;;;;;;;7.03;1.95;;;17.60;87.80;;;;;;5041393;28;20021;-81
2021/08/08 00:46:54;;;;;;;4.70;1.75;;;17.50;87.50;;;;;;5041442;28;20020;-81
2021/08/08 00:49:19;;;;;;;8.23;1.85;;;17.50;87.60;;;;;;5057911;28;20021;-81
2021/08/08 00:51:46;;;;;;;5.00;2.10;;;17.50;87.50;;;;;;5037537;28;20037;-81
2021/08/08 00:54:12;;;;;;;8.82;2.30;;;17.50;87.90;;;;;;5037739;28;20068;-81
2021/08/08 00:56:38;;;;;;;5.03;1.90;;;17.50;88.00;;;;;;5037789;28;20080;-81
2021/08/08 00:59:05;;;;;;;8.55;2.10;;;17.50;87.90;;;;;;5045909;28;20060;-81
2021/08/08 01:01:36;;;;;;;9.07;2.55;;;17.50;87.80;;;;;;5075325;28;20059;-81
2021/08/08 01:04:03;;;;;;;6.78;2.40;;;17.50;87.90;;;;;;5057674;28;20025;-81
2021/08/08 01:06:58;;;;;;;8.25;2.05;;;17.50;87.60;;;;;;5075443;28;20099;-81
2021/08/08 01:09:26;;;;;;;10.57;2.10;;;17.50;87.90;;;;;;5051962;28;20048;-81
2021/08/08 01:11:53;;;;;;;11.63;2.05;;;17.50;87.90;;;;;;5075326;28;20070;-81
2021/08/08 01:14:19;;;;;;;7.85;2.47;;;17.50;87.70;;;;;;5075390;28;20028;-81
2021/08/08 01:16:47;;;;;;;9.98;2.42;;;17.50;87.60;;;;;;5057318;28;20033;-81
2021/08/08 01:19:18;;;;;;;7.95;2.38;;;17.50;87.60;;;;;;5075261;28;20478;-81
2021/08/08 01:21:46;;;;;;;10.73;2.47;;;17.50;87.50;;;;;;5075278;28;20504;-81
2021/08/08 01:24:12;;;;;;;11.20;2.67;;;17.50;87.50;;;;;;5057045;28;20599;-81
2021/08/08 01:26:40;;;;;;;7.75;2.28;;;17.50;87.60;;;;;;5057366;28;20115;-81
2021/08/08 01:29:07;;;;;;;7.70;2.40;;;17.50;87.40;;;;;;5057105;28;20027;-81
2021/08/08 01:31:33;;;;;;;10.57;2.47;;;17.50;87.20;;;;;;5057115;28;20385;-81
2021/08/08 01:33:58;;;;;;;10.82;2.55;;;17.50;87.20;;;;;;5040338;28;20028;-81
2021/08/08 01:36:24;;;;;;;9.02;2.33;;;17.50;87.10;;;;;;5057033;28;20024;-81
2021/08/08 01:39:02;;;;;;;6.97;2.20;;;17.50;87.10;;;;;;5074645;28;20056;-81
2021/08/08 01:41:33;;;;;;;6.30;2.00;;;17.50;87.20;;;;;;5056517;28;20028;-81
2021/08/08 01:44:00;;;;;;;15.35;2.58;;;17.50;87.30;;;;;;5056806;28;20060;-81
2021/08/08 01:46:27;;;;;;;9.65;2.55;;;17.40;87.30;;;;;;5057009;28;20542;-81
2021/08/08 01:48:55;;;;;;;8.00;2.30;;;17.40;87.70;;;;;;5036792;28;20033;-81
2021/08/08 01:51:22;;;;;;;10.80;2.40;;;17.40;87.10;;;;;;5054477;28;20029;-81
2021/08/08 01:53:48;;;;;;;10.40;2.45;;;17.40;87.20;;;;;;5054486;28;20040;-81
2021/08/08 01:56:14;;;;;;;10.18;2.53;;;17.40;87.30;;;;;;5039858;28;20067;-80
2021/08/08 01:58:40;;;;;;;10.93;2.30;;;17.40;86.80;;;;;;5039789;28;20064;-81
2021/08/08 02:01:06;;;;;;;11.15;2.30;;;17.50;86.70;;;;;;5056350;28;20513;-81
2021/08/08 02:03:36;;;;;;;9.73;2.40;;;17.40;86.30;;;;;;5074355;28;20028;-81
2021/08/08 02:06:03;;;;;;;8.82;2.28;;;17.40;86.40;;;;;;5056351;28;20031;-81
2021/08/08 02:08:29;;;;;;;9.55;2.28;;;17.40;87.20;;;;;;5056219;28;20481;-81
2021/08/08 02:10:55;;;;;;;12.07;2.70;;;17.40;86.20;;;;;;5032807;28;20140;-81
2021/08/08 02:13:20;;;;;;;10.90;2.60;;;17.50;85.90;;;;;;5040160;28;20025;-81
2021/08/08 02:15:46;;;;;;;13.43;2.58;;;17.40;86.50;;;;;;5052884;28;20060;-81
2021/08/08 02:18:12;;;;;;;13.25;2.67;;;17.40;85.20;;;;;;5053037;28;20478;-81
2021/08/08 02:20:37;;;;;;;12.18;2.17;;;17.40;85.90;;;;;;5052866;28;20025;-81
2021/08/08 02:23:03;;;;;;;17.08;2.80;;;17.50;85.40;;;;;;5019369;28;20021;-81
2021/08/08 02:25:29;;;;;;;13.57;2.45;;;17.40;85.40;;;;;;5052698;28;20394;-81
2021/08/08 02:27:55;;;;;;;9.45;2.50;;;17.40;85.20;;;;;;5052708;28;20025;-81
2021/08/08 02:30:20;;;;;;;13.20;2.55;;;17.40;85.10;;;;;;5034992;28;20032;-81
2021/08/08 02:32:46;;;;;;;10.90;2.58;;;17.40;85.00;;;;;;5015378;28;20037;-81
2021/08/08 02:35:12;;;;;;;9.52;2.30;;;17.40;84.80;;;;;;5048173;28;20029;-81
2021/08/08 02:37:38;;;;;;;9.38;2.75;;;17.40;85.00;;;;;;5051536;28;20476;-80
2021/08/08 02:40:05;;;;;;;10.60;2.13;;;17.40;84.70;;;;;;5051959;28;20067;-81
2021/08/08 02:42:32;;;;;;;13.15;2.05;;;17.40;84.30;;;;;;5035997;28;20120;-81
2021/08/08 02:44:58;;;;;;;11.80;2.53;;;17.40;84.20;;;;;;5019896;28;20382;-81
2021/08/08 02:47:24;;;;;;;12.65;3.13;;;17.40;84.30;;;;;;5035815;28;20025;-81
2021/08/08 02:49:49;;;;;;;11.48;2.08;;;17.30;83.40;;;;;;5035756;28;20021;-81
2021/08/08 02:52:15;;;;;;;17.65;3.20;;;17.30;83.50;;;;;;5035806;28;20039;-81
2021/08/08 02:54:40;;;;;;;11.23;2.45;;;17.30;84.00;;;;;;5052247;28;20036;-81
2021/08/08 02:57:06;;;;;;;9.95;2.38;;;17.20;84.20;;;;;;5051631;28;20099;-81
2021/08/08 02:59:33;;;;;;;13.82;2.72;;;17.20;84.20;;;;;;5032236;28;20462;-81
2021/08/08 03:02:00;;;;;;;9.68;2.50;;;17.20;83.90;;;;;;5042065;28;20401;-80
2021/08/08 03:04:25;;;;;;;20.02;2.78;;;17.20;83.80;;;;;;5052348;28;20029;-80
2021/08/08 03:06:51;;;;;;;13.82;2.75;;;17.20;83.70;;;;;;5030676;28;20029;-80
2021/08/08 03:09:16;;;;;;;20.25;2.78;;;17.20;83.80;;;;;;5042822;28;20605;-80
2021/08/08 03:11:45;;;;;;;8.18;2.53;;;17.20;83.90;;;;;;5050485;28;20052;-80
2021/08/08 03:14:13;;;;;;;17.90;3.15;;;17.20;83.80;;;;;;5035646;28;20033;-80
2021/08/08 03:16:39;;;;;;;19.83;3.58;;;17.20;83.80;;;;;;5051774;28;20690;-81
2021/08/08 03:19:05;;;;;;;13.30;2.42;;;17.20;83.80;;;;;;5035460;28;20555;-81
2021/08/08 03:21:30;;;;;;;7.40;2.28;;;17.20;83.80;;;;;;5051628;28;20061;-81
2021/08/08 03:23:56;;;;;;;13.27;2.58;;;17.20;83.90;;;;;;5051888;28;20036;-81
2021/08/08 03:26:21;;;;;;;18.13;3.05;;;17.10;83.80;;;;;;5035081;28;20044;-81
2021/08/08 03:28:47;;;;;;;12.90;2.50;;;17.10;84.00;;;;;;5018868;28;20021;-81
2021/08/08 03:31:13;;;;;;;10.70;2.65;;;17.10;84.30;;;;;;5051803;28;20111;-81
2021/08/08 03:33:38;;;;;;;12.88;2.72;;;17.10;84.30;;;;;;5035480;28;20029;-80
2021/08/08 03:36:04;;;;;;;11.95;2.50;;;17.10;84.40;;;;;;5051726;28;20041;-81
2021/08/08 03:38:30;;;;;;;9.88;3.03;;;17.10;84.10;;;;;;5035060;28;20400;-81
2021/08/08 03:40:55;;;;;;;12.40;2.53;;;17.10;84.10;;;;;;5052859;28;20083;-81
2021/08/08 03:43:21;;;;;;;13.18;2.50;;;17.10;84.10;;;;;;5051465;28;20029;-81
2021/08/08 03:45:46;;;;;;;15.20;2.72;;;17.10;84.00;;;;;;5018806;28;20436;-81
2021/08/08 03:48:12;;;;;;;16.35;3.13;;;17.10;83.70;;;;;;5051604;28;20486;-81
2021/08/08 03:50:39;;;;;;;11.02;2.40;;;17.10;83.70;;;;;;5051749;28;20033;-81
2021/08/08 03:53:06;;;;;;;10.13;2.85;;;17.00;84.10;;;;;;5019006;28;20035;-81
2021/08/08 03:55:31;;;;;;;9.02;2.17;;;16.90;84.10;;;;;;5052775;28;20025;-81
2021/08/08 03:57:57;;;;;;;13.40;2.47;;;16.90;84.70;;;;;;5034942;28;20032;-81
2021/08/08 04:00:24;;;;;;;24.38;2.95;;;16.90;84.70;;;;;;5052640;28;20029;-81
2021/08/08 04:02:49;;;;;;;11.68;3.05;;;16.80;84.50;;;;;;5051504;28;20036;-81
2021/08/08 04:05:15;;;;;;;13.80;2.70;;;16.80;84.60;;;;;;5051386;28;20025;-81
2021/08/08 04:07:41;;;;;;;12.75;2.50;;;16.70;84.80;;;;;;5034917;28;20060;-81
2021/08/08 04:10:07;;;;;;;10.95;2.85;;;16.70;84.90;;;;;;5060809;28;20040;-81
2021/08/08 04:12:33;;;;;;;11.27;2.45;;;16.70;85.10;;;;;;5058422;28;20048;-81
2021/08/08 04:15:04;;;;;;;9.68;2.72;;;16.60;85.30;;;;;;5076280;28;20481;-81
2021/08/08 04:17:30;;;;;;;14.45;3.08;;;16.60;85.20;;;;;;5058311;28;20401;-81
2021/08/08 04:19:56;;;;;;;13.65;2.88;;;16.60;85.50;;;;;;5076361;28;20021;-81
2021/08/08 04:22:21;;;;;;;13.02;2.33;;;16.60;85.60;;;;;;5058582;28;20032;-81
2021/08/08 04:24:47;;;;;;;14.35;2.55;;;16.60;85.70;;;;;;5041605;28;20028;-81
2021/08/08 04:27:13;;;;;;;17.13;3.10;;;16.60;85.70;;;;;;5041668;28;20028;-81
2021/08/08 04:29:42;;;;;;;13.35;2.50;;;16.60;85.90;;;;;;5058235;28;20070;-81
2021/08/08 04:32:08;;;;;;;11.80;3.13;;;16.60;85.90;;;;;;5041227;28;20774;-81
2021/08/08 04:34:34;;;;;;;13.15;2.67;;;16.60;85.90;;;;;;5058171;28;20036;-81
2021/08/08 04:37:00;;;;;;;17.42;3.20;;;16.60;85.90;;;;;;5041173;28;20035;-81
2021/08/08 04:39:26;;;;;;;14.70;2.75;;;16.60;85.90;;;;;;5058110;28;20115;-81
2021/08/08 04:41:52;;;;;;;19.30;3.30;;;16.50;86.00;;;;;;5041412;28;20458;-81
2021/08/08 04:44:21;;;;;;;15.35;2.83;;;16.50;86.10;;;;;;5041464;28;20024;-81
2021/08/08 04:46:48;;;;;;;19.20;3.75;;;16.50;86.30;;;;;;5075811;28;20028;-82
2021/08/08 04:49:14;;;;;;;15.15;3.35;;;16.60;86.40;;;;;;5075873;28;20099;-80
2021/08/08 04:51:41;;;;;;;14.85;3.35;;;16.60;86.30;;;;;;5040932;28;20477;-81
2021/08/08 04:54:08;;;;;;;15.32;3.10;;;16.60;86.20;;;;;;5075503;28;20040;-81
2021/08/08 04:56:34;;;;;;;15.07;3.22;;;16.60;86.30;;;;;;5057568;28;20036;-81
2021/08/08 04:59:00;;;;;;;14.75;2.75;;;16.60;86.10;;;;;;5040930;28;20120;-81
2021/08/08 05:01:25;;;;;;;13.35;2.90;;;16.70;86.20;;;;;;5057730;28;20036;-81
2021/08/08 05:03:51;;;;;;;11.68;2.95;;;16.70;86.20;;;;;;5057622;28;20029;-81
2021/08/08 05:06:16;;;;;;;14.25;3.25;;;16.70;86.20;;;;;;5041149;28;20078;-81
2021/08/08 05:08:42;;;;;;;12.75;3.13;;;16.70;86.30;;;;;;5040935;28;20439;-81
2021/08/08 05:11:08;;;;;;;14.80;3.15;;;16.70;86.40;;;;;;5040675;28;20142;-81
2021/08/08 05:13:33;;;;;;;19.13;3.03;;;16.80;86.40;;;;;;5057465;28;20036;-81
2021/08/08 05:15:59;;;;;;;13.40;2.65;;;16.70;85.90;;;;;;5040867;28;20033;-81
2021/08/08 05:18:25;;;;;;;12.15;3.42;;;16.80;86.10;;;;;;5040520;28;20167;-81
2021/08/08 05:20:51;;;;;;;19.38;3.30;;;16.80;85.70;;;;;;5056821;28;20032;-81
2021/08/08 05:23:16;;;;;;;13.23;2.88;;;16.90;85.70;;;;;;5057257;28;20032;-82
2021/08/08 05:25:42;;;;;;;13.90;2.70;;;16.80;85.80;;;;;;5057214;28;20535;-82
2021/08/08 05:28:08;;;;;;;15.57;3.10;;;16.90;85.80;;;;;;5057117;28;20021;-82
2021/08/08 05:30:33;;;;;;;15.68;3.53;;;16.90;86.10;;;;;;5040404;28;20401;-82
2021/08/08 05:32:59;;;;;;;17.15;3.25;;;16.90;86.10;;;;;;5074827;28;20048;-82
2021/08/08 05:35:24;;;;;;;12.30;2.92;;;16.90;85.90;;;;;;5039735;28;20485;-82
2021/08/08 05:37:50;;;;;;;14.65;3.00;;;17.00;85.80;;;;;;5038955;28;20129;-82
2021/08/08 05:40:16;;;;;;;12.32;3.00;;;16.90;85.70;;;;;;5039358;28;20048;-82
2021/08/08 05:42:49;;;;;;;17.90;3.45;;;17.00;85.50;;;;;;5060233;28;20031;-82
2021/08/08 05:45:17;;;;;;;16.65;3.30;;;17.10;85.40;;;;;;5060125;28;20031;-82
2021/08/08 05:47:43;;;;;;;11.15;2.83;;;17.00;84.90;;;;;;5074317;28;20037;-81
2021/08/08 05:50:09;;;;;;;16.30;3.08;;;17.10;84.90;;;;;;5056768;28;20029;-82
2021/08/08 05:52:34;;;;;;;14.57;2.75;;;17.10;84.70;;;;;;5039247;28;20052;-82
2021/08/08 05:55:01;;;;;;;14.65;2.95;;;17.10;84.50;;;;;;5055249;28;20107;-82
2021/08/08 05:57:26;;;;;;;15.18;3.65;;;17.10;84.20;;;;;;5072948;28;20031;-82
2021/08/08 05:59:52;;;;;;;19.70;2.60;;;17.20;84.30;;;;;;5055642;28;20029;-81
2021/08/08 06:02:18;;;;;;;16.15;2.85;;;17.20;84.30;;;;;;5023273;28;20481;-81
2021/08/08 06:04:48;;;;;;;15.88;3.67;;;17.20;84.00;;;;;;5039596;28;20029;-82
2021/08/08 06:07:14;;;;;;;18.10;3.25;;;17.20;84.80;;;;;;5056294;28;20025;-81
2021/08/08 06:09:39;;;;;;;18.85;3.33;;;17.20;84.30;;;;;;5039285;28;20078;-82
2021/08/08 06:12:07;;;;;;;11.38;2.45;;;17.20;84.00;;;;;;5055976;28;20505;-82
2021/08/08 06:14:33;;;;;;;16.27;3.10;;;17.20;84.00;;;;;;5022928;28;20532;-82
2021/08/08 06:16:59;;;;;;;14.20;2.83;;;17.30;84.60;;;;;;5072920;28;20029;-82
2021/08/08 06:19:24;;;;;;;14.05;2.85;;;17.30;84.40;;;;;;5055076;28;20371;-82
2021/08/08 06:21:50;;;;;;;11.60;2.95;;;17.30;83.60;;;;;;5038264;28;20538;-82
2021/08/08 06:24:16;;;;;;;13.55;3.10;;;17.30;84.00;;;;;;5022194;28;20389;-82
2021/08/08 06:26:41;;;;;;;12.95;3.10;;;17.30;83.10;;;;;;5054670;28;20033;-82
2021/08/08 06:29:07;;;;;;;15.75;2.90;;;17.30;83.20;;;;;;5038324;28;20101;-81
2021/08/08 06:31:33;;;;;;;12.13;2.67;;;17.30;83.20;;;;;;5021502;28;20028;-82
2021/08/08 06:33:59;;;;;;;15.20;3.15;;;17.30;83.00;;;;;;5055792;28;20093;-82
2021/08/08 06:36:25;;;;;;;14.77;3.08;;;17.20;83.20;;;;;;5055848;28;20512;-82
2021/08/08 06:38:52;;;;;;;16.25;3.35;;;17.20;83.20;;;;;;5022719;28;20040;-82
2021/08/08 06:41:17;;;;;;;15.57;3.05;;;17.20;83.00;;;;;;5039256;28;20508;-82
2021/08/08 06:43:43;;;;;;;11.65;3.13;;;17.30;82.70;;;;;;5055892;28;20085;-82
2021/08/08 06:46:09;;;;;;;17.95;3.30;;;17.30;82.60;;;;;;5039170;28;20021;-82
2021/08/08 06:48:35;;;;;;;20.33;3.40;;;17.30;82.90;;;;;;5035410;28;20112;-82
2021/08/08 06:51:02;;;;;;;10.38;3.08;;;17.30;82.50;;;;;;5019479;28;20036;-82
2021/08/08 06:53:27;;;;;;;13.35;3.13;;;17.40;82.10;;;;;;5052276;28;20029;-82
2021/08/08 06:55:53;;;;;;;13.20;2.72;;;17.50;82.00;;;;;;5043299;28;20043;-82
2021/08/08 06:58:18;;;;;;;17.40;3.22;;;17.60;81.50;;;;;;5022490;28;20028;-82
2021/08/08 07:00:44;;;;;;;17.27;3.35;;;17.70;80.80;;;;;;5022174;28;20039;-82
2021/08/08 07:03:10;;;;;;;15.30;3.00;;;17.70;80.30;;;;;;5055293;28;20020;-82
2021/08/08 07:05:36;;;;;;;11.93;2.88;;;17.80;79.80;;;;;;5055311;28;20024;-82
2021/08/08 07:08:01;;;;;;;16.17;3.10;;;18.00;79.50;;;;;;5038738;28;20024;-82
2021/08/08 07:10:27;;;;;;;16.20;3.15;;;18.20;79.10;;;;;;5055078;28;20110;-82
2021/08/08 07:12:52;;;;;;;19.70;3.35;;;18.30;78.90;;;;;;5022343;28;20389;-82
2021/08/08 07:15:18;;;;;;;15.38;3.08;;;18.40;78.80;;;;;;5055334;28;20476;-82
2021/08/08 07:17:44;;;;;;;14.88;3.47;;;18.50;78.00;;;;;;5022161;28;20033;-79
2021/08/08 07:20:10;;;;;;;17.58;3.00;;;18.50;77.00;;;;;;5034757;28;20029;-79
2021/08/08 07:22:36;;;;;;;14.20;2.92;;;18.50;77.20;;;;;;5052808;28;20036;-78
2021/08/08 07:25:01;;;;;;;13.68;2.95;;;18.50;77.70;;;;;;5041184;28;20370;-79
2021/08/08 07:27:27;;;;;;;19.42;3.15;;;18.60;77.80;;;;;;5034661;28;20505;-79
2021/08/08 07:29:53;;;;;;;19.63;3.25;;;18.60;77.30;;;;;;5054424;28;20421;-78
2021/08/08 07:32:19;;;;;;;14.05;2.80;;;18.60;76.70;;;;;;5021786;28;20111;-79
2021/08/08 07:34:45;;;;;;;15.65;3.13;;;18.60;77.10;;;;;;5021522;28;20052;-78
2021/08/08 07:37:10;;;;;;;11.98;2.78;;;18.70;76.20;;;;;;5038029;28;20068;-79
2021/08/08 07:39:36;;;;;;;15.07;3.50;;;18.80;76.10;;;;;;5034634;28;20044;-78
2021/08/08 07:42:03;;;;;;;16.83;2.95;;;18.90;76.20;;;;;;5034560;28;20386;-78
2021/08/08 07:44:28;;;;;;;13.20;3.20;;;18.90;75.90;;;;;;5068305;28;20077;-78
2021/08/08 07:46:54;;;;;;;18.17;3.10;;;18.80;76.40;;;;;;5045296;28;20024;-78
2021/08/08 07:49:20;;;;;;;16.92;2.80;;;18.70;77.20;;;;;;5045794;28;20033;-78
2021/08/08 07:51:45;;;;;;;13.90;3.17;;;18.70;77.20;;;;;;5058141;28;20036;-78
2021/08/08 07:54:11;;;;;;;18.27;3.50;;;18.70;77.00;;;;;;5058262;28;20033;-78
2021/08/08 07:56:37;;;;;;;12.93;2.85;;;18.70;76.20;;;;;;5038338;28;20052;-78
2021/08/08 07:59:02;;;;;;;12.50;2.63;;;18.70;76.20;;;;;;5022197;28;20032;-79
2021/08/08 08:01:28;;;;;;;15.18;3.00;;;18.80;75.20;;;;;;5050320;28;20062;-79
2021/08/08 08:03:54;;;;;;;13.35;2.92;;;19.00;75.70;;;;;;5058630;28;20029;-78
2021/08/08 08:06:19;;;;;;;16.13;2.97;;;19.30;73.70;;;;;;5058528;28;20029;-80
2021/08/08 08:08:45;;;;;;;11.73;2.90;;;19.40;73.50;;;;;;5038804;28;20082;-78
2021/08/08 08:11:11;;;;;;;19.38;3.45;;;19.60;73.80;;;;;;5042936;28;20434;-79
2021/08/08 08:13:37;;;;;;;12.38;2.72;;;19.70;73.20;;;;;;5051683;28;20036;-79
2021/08/08 08:16:02;;;;;;;13.85;2.70;;;19.70;72.50;;;;;;5058318;28;20024;-79
2021/08/08 08:18:28;;;;;;;20.33;3.22;;;19.70;72.90;;;;;;5038527;28;20090;-79
2021/08/08 08:20:54;;;;;;;15.43;2.75;;;19.80;72.60;;;;;;5040737;28;20037;-80
2021/08/08 08:23:21;;;;;;;18.55;3.03;;;19.80;72.80;;;;;;5058225;28;20032;-80
2021/08/08 08:25:47;;;;;;;13.57;2.75;;;19.70;72.80;;;;;;5058259;28;20098;-81
2021/08/08 08:28:12;;;;;;;22.25;4.00;;;19.70;73.20;;;;;;5041507;28;20052;-80
2021/08/08 08:30:39;;;;;;;15.43;3.15;;;19.70;73.90;;;;;;5038270;28;20885;-79
2021/08/08 08:33:06;;;;;;;14.65;3.30;;;19.80;72.80;;;;;;5033699;28;20036;-80
2021/08/08 08:35:32;;;;;;;15.57;2.88;;;19.80;72.30;;;;;;5058289;28;20056;-80
2021/08/08 08:37:58;;;;;;;22.35;3.25;;;19.90;72.70;;;;;;5046539;28;20025;-80
2021/08/08 08:40:23;;;;;;;18.25;3.08;;;19.80;72.20;;;;;;5034184;28;20037;-79
2021/08/08 08:42:51;;;;;;;9.82;2.97;;;19.70;72.80;;;;;;5038245;28;20029;-79
2021/08/08 08:45:18;;;;;;;13.98;2.72;;;19.60;72.70;;;;;;5037946;28;20030;-80
2021/08/08 08:47:45;;;;;;;13.02;2.65;;;19.60;72.20;;;;;;5021316;28;20076;-79
2021/08/08 08:50:11;;;;;;;14.38;2.88;;;19.50;72.10;;;;;;5030425;28;20094;-80
2021/08/08 08:52:37;;;;;;;15.40;2.80;;;19.50;72.80;;;;;;5058141;28;20044;-79
2021/08/08 08:55:04;;;;;;;12.68;2.60;;;19.70;71.80;;;;;;5074712;28;20538;-79
2021/08/08 08:57:30;;;;;;;14.55;2.55;;;19.80;72.40;;;;;;5075590;28;20027;-80
2021/08/08 08:59:58;;;;;;;15.07;3.30;;;19.80;71.80;;;;;;5057395;28;20036;-80
2021/08/08 09:02:23;;;;;;;12.57;2.45;;;19.70;71.80;;;;;;5075554;28;20366;-80
2021/08/08 09:04:49;;;;;;;14.20;2.72;;;19.70;71.70;;;;;;5040275;28;20065;-79
2021/08/08 09:07:15;;;;;;;19.23;2.80;;;19.70;72.00;;;;;;5040651;28;20033;-80
2021/08/08 09:09:41;;;;;;;10.73;2.90;;;19.80;72.00;;;;;;5040588;28;20044;-80
2021/08/08 09:12:07;;;;;;;12.82;2.67;;;19.80;71.70;;;;;;5056883;28;20404;-80
2021/08/08 09:14:34;;;;;;;14.38;2.80;;;19.80;71.80;;;;;;5040706;28;20401;-80
2021/08/08 09:17:00;;;;;;;10.80;2.63;;;19.80;72.60;;;;;;5057023;28;20066;-79
2021/08/08 09:19:27;;;;;;;14.38;2.78;;;19.80;72.00;;;;;;5040405;28;20105;-79
2021/08/08 09:21:54;;;;;;;11.63;2.42;;;19.80;72.80;;;;;;5040676;28;20028;-79
2021/08/08 09:24:29;;;;;;;13.80;3.10;;;19.90;72.80;;;;;;5040521;28;20166;-79
2021/08/08 09:27:05;;;;;;;13.18;2.65;;;20.10;72.10;;;;;;5057046;28;20032;-79
2021/08/08 09:29:32;;;;;;;12.38;2.30;;;20.40;70.30;;;;;;5075018;28;20073;-79
2021/08/08 09:31:58;;;;;;;12.98;2.72;;;20.70;70.30;;;;;;5057092;28;20039;-78
2021/08/08 09:34:32;;;;;;;14.30;2.53;;;20.70;70.40;;;;;;5053664;28;20031;-78
2021/08/08 09:37:03;;;;;;;13.32;2.55;;;20.70;70.30;;;;;;5052124;28;20043;-77
2021/08/08 09:39:41;;;;;;;10.05;2.58;;;20.50;69.60;;;;;;5051748;28;20058;-78
2021/08/08 09:42:09;;;;;;;13.40;2.20;;;20.40;69.90;;;;;;5070756;28;21231;-78
2021/08/08 09:44:36;;;;;;;10.45;2.20;;;20.40;70.30;;;;;;5070538;28;20016;-79
2021/08/08 09:47:03;;;;;;;16.83;2.40;;;20.20;70.70;;;;;;5070595;28;20016;-78
2021/08/08 09:49:28;;;;;;;11.35;3.03;;;20.10;71.00;;;;;;5053453;28;20035;-78
2021/08/08 09:51:54;;;;;;;14.57;2.75;;;20.10;71.10;;;;;;5056085;28;20032;-78
2021/08/08 09:54:21;;;;;;;14.05;2.75;;;20.20;71.40;;;;;;5073874;28;20035;-78
2021/08/08 09:57:00;;;;;;;10.45;2.45;;;20.30;71.00;;;;;;5074242;28;20024;-79
2021/08/08 09:59:26;;;;;;;11.88;2.40;;;20.20;70.40;;;;;;5055517;28;20090;-79
2021/08/08 10:01:51;;;;;;;11.32;2.35;;;20.10;71.10;;;;;;5038623;28;20033;-78
2021/08/08 10:04:17;;;;;;;9.82;2.45;;;19.90;71.60;;;;;;5037468;28;20044;-78
2021/08/08 10:06:44;;;;;;;9.32;2.30;;;19.90;71.60;;;;;;5039845;28;20496;-78
2021/08/08 10:09:11;;;;;;;12.77;2.72;;;19.90;71.80;;;;;;5055988;28;20063;-79
2021/08/08 10:11:37;;;;;;;13.60;2.78;;;19.90;71.90;;;;;;5039269;28;20102;-79
2021/08/08 10:14:05;;;;;;;10.95;2.42;;;20.00;71.80;;;;;;5036204;28;20402;-79
2021/08/08 10:16:35;;;;;;;13.57;2.60;;;20.10;72.00;;;;;;5036382;28;20036;-79
2021/08/08 10:19:02;;;;;;;12.05;2.65;;;20.20;70.90;;;;;;5054984;28;20456;-78
2021/08/08 10:21:32;;;;;;;10.77;2.22;;;20.30;69.90;;;;;;5038194;28;20550;-79
2021/08/08 10:24:06;;;;;;;7.53;2.30;;;20.40;70.20;;;;;;5056209;28;20128;-78
2021/08/08 10:26:32;;;;;;;10.05;2.67;;;20.70;70.20;;;;;;5056068;28;20396;-79
2021/08/08 10:29:00;;;;;;;12.70;2.25;;;20.90;69.30;;;;;;5055809;28;20020;-78
2021/08/08 10:31:28;;;;;;;10.53;2.27;;;21.00;68.90;;;;;;5073739;28;20028;-78
2021/08/08 10:33:55;;;;;;;11.23;1.88;;;21.00;68.50;;;;;;5073805;28;20265;-79
2021/08/08 10:36:25;;;;;;;15.38;2.42;;;20.90;68.50;;;;;;5055432;28;20480;-78
2021/08/08 10:38:53;;;;;;;13.73;2.30;;;20.80;69.30;;;;;;5035825;28;20029;-77
2021/08/08 10:41:20;;;;;;;13.85;2.50;;;20.70;68.70;;;;;;5043488;28;20033;-79
2021/08/08 10:43:46;;;;;;;10.30;2.42;;;20.50;68.10;;;;;;5054923;28;20045;-77
2021/08/08 10:46:15;;;;;;;10.98;2.58;;;20.40;69.10;;;;;;5038484;28;20048;-78
2021/08/08 10:48:43;;;;;;;11.45;2.40;;;20.30;69.40;;;;;;5055045;28;20032;-78
2021/08/08 10:51:24;;;;;;;11.40;2.30;;;20.30;69.10;;;;;;5072530;28;20021;-78
2021/08/08 10:54:07;;;;;;;11.25;2.00;;;20.40;69.20;;;;;;5072702;28;20047;-78
2021/08/08 10:56:43;;;;;;;11.57;2.00;;;20.50;69.40;;;;;;5053024;28;20055;-78
2021/08/08 10:59:13;;;;;;;10.23;2.55;;;20.60;68.50;;;;;;5052886;28;20473;-78
2021/08/08 11:01:39;;;;;;;9.25;2.10;;;20.70;67.50;;;;;;5038423;28;20036;-79
2021/08/08 11:04:07;;;;;;;12.63;1.98;;;20.90;68.00;;;;;;5038296;28;20495;-79
2021/08/08 11:06:34;;;;;;;11.48;2.25;;;21.20;67.20;;;;;;5055818;28;20017;-79
2021/08/08 11:09:01;;;;;;;7.45;1.92;;;21.50;67.00;;;;;;5055855;28;20041;-79
2021/08/08 11:11:29;;;;;;;8.65;1.50;;;21.70;66.30;;;;;;5053909;28;20501;-79
2021/08/08 11:14:13;;;;;;;4.60;1.50;;;21.90;64.80;;;;;;5055036;28;20024;-79
2021/08/08 11:16:45;;;;;;;8.57;1.98;;;22.00;65.00;;;;;;5072072;28;20078;-79
2021/08/08 11:19:11;;;;;;;5.47;1.40;;;22.20;62.00;;;;;;5054732;28;20119;-79
2021/08/08 11:21:38;;;;;;;7.93;1.65;;;22.40;62.50;;;;;;5072350;28;20024;-79
2021/08/08 11:24:09;;;;;;;10.60;1.60;;;22.40;62.20;;;;;;5038443;28;20021;-79
2021/08/08 11:26:35;;;;;;;4.80;1.70;;;22.30;61.50;;;;;;5072804;28;20028;-79
2021/08/08 11:29:03;;;;;;;6.18;1.50;;;22.20;62.40;;;;;;5054842;28;20029;-78
2021/08/08 11:31:34;;;;;;;6.65;1.70;;;22.20;61.90;;;;;;5054160;28;20028;-78
2021/08/08 11:34:01;;;;;;;8.68;1.40;;;22.20;61.70;;;;;;5072366;28;20405;-78
2021/08/08 11:36:33;;;;;;;6.20;1.50;;;22.30;60.70;;;;;;5072761;28;20029;-77
2021/08/08 11:39:00;;;;;;;10.18;2.28;;;22.30;61.90;;;;;;5054375;28;20037;-78
2021/08/08 11:41:26;;;;;;;6.50;1.20;;;22.40;61.20;;;;;;5054660;28;20497;-83
2021/08/08 11:44:04;;;;;;;5.63;1.65;;;22.40;61.20;;;;;;5038087;28;20025;-84
2021/08/08 11:46:30;;;;;;;4.80;1.30;;;22.30;62.70;;;;;;5047193;28;20021;-85
2021/08/08 11:48:55;;;;;;;4.50;1.50;;;22.20;62.00;;;;;;5033970;28;20124;-83
2021/08/08 11:51:21;;;;;;;8.95;1.40;;;22.20;61.80;;;;;;5053424;28;20029;-84
2021/08/08 11:53:53;;;;;;;4.38;1.13;;;22.30;61.80;;;;;;5072400;28;20036;-84
2021/08/08 11:56:28;;;;;;;5.82;1.40;;;22.30;62.00;;;;;;5072411;28;20031;-86
2021/08/08 11:58:56;;;;;;;9.73;1.83;;;22.40;61.50;;;;;;5056222;28;20488;-85
2021/08/08 12:01:24;;;;;;;7.43;1.52;;;22.60;61.30;;;;;;5054712;28;20040;-86
2021/08/08 12:03:54;;;;;;;7.57;1.40;;;22.80;61.40;;;;;;5038288;28;20052;-86
2021/08/08 12:06:24;;;;;;;7.38;1.75;;;23.00;59.50;;;;;;5072916;28;20069;-84
2021/08/08 12:08:54;;;;;;;6.60;1.38;;;22.90;60.00;;;;;;5054373;28;20159;-82
2021/08/08 12:11:22;;;;;;;6.28;1.40;;;23.00;60.20;;;;;;5051165;28;20056;-84
2021/08/08 12:14:05;;;;;;;5.22;1.30;;;23.30;60.10;;;;;;5011801;28;20113;-84
2021/08/08 12:16:36;;;;;;;8.80;1.60;;;23.60;59.30;;;;;;5012876;28;20041;-84
2021/08/08 12:19:06;;;;;;;6.20;1.55;;;23.70;57.70;;;;;;5011568;28;20073;-84
2021/08/08 12:21:38;;;;;;;7.85;1.55;;;23.80;57.50;;;;;;5011216;28;20394;-84
2021/08/08 12:24:08;;;;;;;5.97;1.23;;;23.70;56.60;;;;;;5011460;28;20486;-84
2021/08/08 12:26:34;;;;;;;5.68;1.40;;;23.30;56.60;;;;;;5011695;28;20026;-84
2021/08/08 12:29:05;;;;;;;5.32;1.20;;;23.10;57.90;;;;;;5012585;28;20049;-84
2021/08/08 12:31:39;;;;;;;4.65;1.35;;;22.90;59.30;;;;;;5028897;28;20121;-84
2021/08/08 12:34:06;;;;;;;4.65;1.40;;;22.80;58.60;;;;;;5016132;28;20037;-84
2021/08/08 12:37:00;;;;;;;7.47;1.42;;;22.70;57.70;;;;;;5015152;28;20391;-84
2021/08/08 12:39:28;;;;;;;6.15;1.58;;;22.50;57.80;;;;;;5015018;28;20042;-84